CSCL Oceania — VRBI2 — position and weather

sailwx.info

Track history (hours):
 
Tides and Currents Weather Stations Pressure Air Temp Water Temp Dewpoint Dewpoint Depression Visibility Wind Speed Wind Dir Waves Ship Positions

CSCL Oceania

Last reported at 2016-Jul-14 20:13 UTC. Time now 2016-Jul-28 16:24 UTC.
Position N 48°31' W 126°29'.
Warning: this ship's position is 13 days out of date.

Length 334 m; beam 42.8 m; draft 14.5 m.

Type: Cargo ship. MMSI: 477020300.

Date/timePositionNaut miles runAvg speedWind from/ knotsBaromVisibWave heightAir tempDewpointWater temp
2016-Jul-14 20:13N 48°31' W 126°29'913.9
2016-Jul-14 19:33N 48°31' W 126°15'1413.8
2016-Jul-14 18:34N 48°31' W 125°54'1313.0
2016-Jul-14 17:33N 48°31' W 125°34'1312.8
2016-Jul-14 16:33N 48°32' W 125°15'1312.8
2016-Jul-14 15:33N 48°31' W 124°56'1313.4
2016-Jul-14 14:33N 48°28' W 124°36'1414.0
2016-Jul-14 13:33N 48°23' W 124°17'1413.9
2016-Jul-14 12:33N 48°18' W 123°57'1514.5
2016-Jul-14 11:32N 48°16' W 123°35'7 6.8
2016-Jul-14 10:33N 48°20' W 123°27'1211.7
2016-Jul-14 09:34N 48°26' W 123°12'1817.6
2016-Jul-14 08:34N 48°43' W 123°11'1313.1
2016-Jul-14 07:34N 48°56' W 123°06'6 5.1
2016-Jul-14 06:27N 49°01' W 123°09'0 0.0
2016-Jul-14 05:33N 49°01' W 123°09'0 0.0
2016-Jul-14 04:30N 49°01' W 123°09'0 0.0
2016-Jul-14 03:33N 49°01' W 123°09'0 0.0
2016-Jul-14 02:33N 49°01' W 123°09'0 0.0
2016-Jul-14 01:33N 49°01' W 123°09'0 0.0
2016-Jul-14 00:21N 49°01' W 123°09'0 0.0
2016-Jul-13 23:33N 49°01' W 123°09'0 0.0
2016-Jul-13 22:32N 49°01' W 123°09'0 0.0
2016-Jul-13 21:30N 49°01' W 123°09'0 0.0
2016-Jul-13 20:33N 49°01' W 123°09'0 0.0
2016-Jul-13 19:30N 49°01' W 123°09'0 0.0
2016-Jul-13 18:33N 49°01' W 123°09'0 0.0
2016-Jul-13 17:33N 49°01' W 123°09'0 0.0
2016-Jul-13 16:33N 49°01' W 123°09'0 0.0
2016-Jul-13 15:33N 49°01' W 123°09'0 0.0
2016-Jul-13 14:33N 49°01' W 123°09'0 0.0
2016-Jul-13 13:33N 49°01' W 123°09'0 0.0
2016-Jul-13 12:33N 49°01' W 123°09'0 0.0
2016-Jul-13 11:12N 49°01' W 123°09'0 0.0
2016-Jul-13 10:30N 49°01' W 123°09'0 0.0
2016-Jul-13 09:33N 49°01' W 123°09'0 0.0
2016-Jul-13 08:33N 49°01' W 123°09'0 0.0
2016-Jul-13 07:30N 49°01' W 123°09'0 0.0
2016-Jul-13 06:33N 49°01' W 123°09'0 0.0
2016-Jul-13 05:33N 49°01' W 123°09'0 0.0
2016-Jul-13 04:33N 49°01' W 123°09'0 0.0
2016-Jul-13 03:33N 49°01' W 123°09'0 0.0
2016-Jul-13 02:33N 49°01' W 123°09'0 0.0
2016-Jul-13 01:33N 49°01' W 123°09'0 0.0
2016-Jul-13 00:33N 49°01' W 123°09'0 0.0
2016-Jul-12 23:33N 49°01' W 123°09'0 0.0
2016-Jul-12 22:33N 49°01' W 123°09'0 0.0
2016-Jul-12 21:33N 49°01' W 123°09'0 0.0
2016-Jul-12 20:33N 49°01' W 123°09'0 0.0
2016-Jul-12 19:33N 49°01' W 123°09'0 0.0
2016-Jul-12 18:33N 49°01' W 123°09'0 0.0
2016-Jul-12 17:32N 49°01' W 123°09'0 0.0
2016-Jul-12 16:33N 49°01' W 123°09'0 0.0
2016-Jul-12 15:33N 49°01' W 123°09'0 0.0
2016-Jul-12 14:33N 49°01' W 123°09'0 0.0
2016-Jul-12 13:33N 49°01' W 123°09'0 0.0
2016-Jul-12 12:30N 49°01' W 123°09'0 0.0
2016-Jul-12 11:33N 49°01' W 123°09'0 0.0
2016-Jul-12 10:30N 49°01' W 123°09'0 0.0
2016-Jul-12 09:28N 49°01' W 123°09'0 0.0
2016-Jul-12 08:31N 49°01' W 123°09'0 0.0
2016-Jul-12 07:31N 49°01' W 123°09'0 0.0
2016-Jul-12 06:31N 49°01' W 123°09'0 0.0
2016-Jul-12 05:31N 49°01' W 123°09'0 0.0
2016-Jul-12 04:28N 49°01' W 123°09'0 0.0
2016-Jul-12 03:31N 49°01' W 123°09'0 0.0
2016-Jul-12 02:31N 49°01' W 123°09'0 0.0
2016-Jul-12 01:31N 49°01' W 123°09'2 2.0
2016-Jul-12 00:33N 49°00' W 123°11'1 1.2
2016-Jul-11 23:33N 48°60' W 123°13'1 0.6
2016-Jul-11 22:33N 48°59' W 123°12'9 9.1
2016-Jul-11 21:33N 48°53' W 123°03'9 9.1
2016-Jul-11 20:33N 48°44' W 123°07'8 7.8
2016-Jul-11 19:33N 48°37' W 123°13'1110.5
2016-Jul-11 18:33N 48°27' W 123°10'1312.8
2016-Jul-11 17:33N 48°19' W 123°24'8 8.3
2016-Jul-11 16:33N 48°10' W 123°24'1413.9
2016-Jul-11 15:33N 48°12' W 123°03'1616.5
2016-Jul-11 14:33N 48°07' W 122°40'1716.9
2016-Jul-11 13:33N 47°53' W 122°28'1616.4
2016-Jul-11 12:33N 47°37' W 122°23'2 2.1
2016-Jul-11 11:33N 47°35' W 122°21'0 0.0
2016-Jul-11 10:30N 47°35' W 122°21'0 0.0
2016-Jul-11 09:33N 47°35' W 122°21'0 0.0
2016-Jul-11 08:33N 47°35' W 122°21'0 0.0
2016-Jul-11 07:31N 47°35' W 122°21'0 0.0
2016-Jul-11 06:32N 47°35' W 122°21'0 0.0
2016-Jul-11 04:32N 47°35' W 122°21'0 0.0
2016-Jul-11 03:33N 47°35' W 122°21'0 0.0
2016-Jul-11 01:15N 47°35' W 122°21'0 0.0
2016-Jul-11 00:33N 47°35' W 122°21'0 0.0
2016-Jul-10 23:33N 47°35' W 122°21'0 0.0
2016-Jul-10 22:33N 47°35' W 122°21'0 0.0
2016-Jul-10 21:33N 47°35' W 122°21'0 0.0
2016-Jul-10 20:32N 47°35' W 122°21'0 0.0
2016-Jul-10 19:32N 47°35' W 122°21'0 0.0
2016-Jul-10 18:32N 47°35' W 122°21'0 0.0
2016-Jul-10 17:32N 47°35' W 122°21'0 0.0
2016-Jul-10 16:31N 47°35' W 122°21'0 0.0
2016-Jul-10 15:31N 47°35' W 122°21'0 0.0
2016-Jul-10 14:31N 47°35' W 122°21'0 0.0
2016-Jul-10 13:33N 47°35' W 122°21'0 0.0
2016-Jul-10 12:33N 47°35' W 122°21'0 0.0
2016-Jul-10 11:33N 47°35' W 122°21'0 0.0
2016-Jul-10 10:33N 47°35' W 122°21'0 0.0
2016-Jul-10 09:33N 47°35' W 122°21'0 0.0
2016-Jul-10 08:33N 47°35' W 122°21'0 0.0
2016-Jul-10 07:31N 47°35' W 122°21'0 0.0
2016-Jul-10 06:31N 47°35' W 122°21'0 0.0
2016-Jul-10 05:31N 47°35' W 122°21'0 0.0
2016-Jul-10 04:33N 47°35' W 122°21'0 0.0
2016-Jul-10 03:33N 47°35' W 122°21'0 0.0
2016-Jul-10 02:31N 47°35' W 122°21'0 0.0
2016-Jul-10 01:31N 47°35' W 122°21'0 0.0
2016-Jul-10 00:31N 47°35' W 122°21'0 0.0
2016-Jul-09 23:31N 47°35' W 122°21'0 0.0
2016-Jul-09 22:31N 47°35' W 122°21'0 0.0
2016-Jul-09 21:31N 47°35' W 122°21'0 0.0
2016-Jul-09 20:31N 47°35' W 122°21'0 0.0
2016-Jul-09 19:33N 47°35' W 122°21'0 0.0
2016-Jul-09 18:33N 47°35' W 122°21'0 0.0
2016-Jul-09 17:33N 47°35' W 122°21'0 0.0
2016-Jul-09 16:33N 47°35' W 122°21'0 0.0
2016-Jul-09 15:31N 47°35' W 122°21'0 0.0
2016-Jul-09 14:32N 47°35' W 122°21'0 0.0
2016-Jul-09 13:33N 47°35' W 122°21'0 0.0
2016-Jul-09 12:33N 47°35' W 122°21'0 0.0
2016-Jul-09 11:33N 47°35' W 122°21'0 0.0
2016-Jul-09 10:33N 47°35' W 122°21'0 0.0
2016-Jul-09 09:33N 47°35' W 122°21'0 0.0
2016-Jul-09 08:33N 47°35' W 122°21'0 0.0
2016-Jul-09 07:33N 47°35' W 122°21'0 0.0
2016-Jul-09 06:33N 47°35' W 122°21'0 0.0
2016-Jul-09 04:33N 47°35' W 122°21'0 0.0
2016-Jul-09 03:34N 47°35' W 122°21'0 0.0
2016-Jul-09 02:33N 47°35' W 122°21'0 0.0
2016-Jul-09 01:33N 47°35' W 122°21'0 0.0
2016-Jul-09 00:33N 47°35' W 122°21'0 0.0
2016-Jul-08 23:33N 47°35' W 122°21'0 0.0
2016-Jul-08 22:34N 47°35' W 122°21'1 0.6
2016-Jul-08 21:33N 47°36' W 122°21'7 7.0
2016-Jul-08 20:34N 47°41' W 122°28'1616.4
2016-Jul-08 19:34N 47°57' W 122°33'2115.7
2016-Jul-08 18:12N 48°11' W 122°56'1219.0
2016-Jul-08 17:34N 48°12' W 123°14'1111.1
2016-Jul-08 16:33N 48°13' W 123°31'1818.2
2016-Jul-08 15:33N 48°14' W 123°58'1918.8
2016-Jul-08 14:33N 48°22' W 124°24'1918.4
2016-Jul-08 13:33N 48°28' W 124°50'1919.5
2016-Jul-08 12:34N 48°29' W 125°19'2019.7
2016-Jul-08 11:34N 48°29' W 125°49'2019.9
2016-Jul-08 10:33N 48°30' W 126°19'2219.5
2016-Jul-08 09:25N 48°31' W 126°52'  
Track history (hours):
 
Tides and Currents Weather Stations Pressure Air Temp Water Temp Dewpoint Dewpoint Depression Visibility Wind Speed Wind Dir Waves Ship Positions

CSCL Oceania

Last reported at 2016-Jul-14 20:13 UTC. Time now 2016-Jul-28 16:24 UTC.
Position N 48°31' W 126°29'.
Warning: this ship's position is 13 days out of date.

Length 334 m; beam 42.8 m; draft 14.5 m.

Type: Cargo ship. MMSI: 477020300.

Date/timePositionNaut miles runAvg speedWind from/ knotsBaromVisibWave heightAir tempDewpointWater temp
2016-Jul-14 20:13N 48°31' W 126°29'913.9
2016-Jul-14 19:33N 48°31' W 126°15'1413.8
2016-Jul-14 18:34N 48°31' W 125°54'1313.0
2016-Jul-14 17:33N 48°31' W 125°34'1312.8
2016-Jul-14 16:33N 48°32' W 125°15'1312.8
2016-Jul-14 15:33N 48°31' W 124°56'1313.4
2016-Jul-14 14:33N 48°28' W 124°36'1414.0
2016-Jul-14 13:33N 48°23' W 124°17'1413.9
2016-Jul-14 12:33N 48°18' W 123°57'1514.5
2016-Jul-14 11:32N 48°16' W 123°35'7 6.8
2016-Jul-14 10:33N 48°20' W 123°27'1211.7
2016-Jul-14 09:34N 48°26' W 123°12'1817.6
2016-Jul-14 08:34N 48°43' W 123°11'1313.1
2016-Jul-14 07:34N 48°56' W 123°06'6 5.1
2016-Jul-14 06:27N 49°01' W 123°09'0 0.0
2016-Jul-14 05:33N 49°01' W 123°09'0 0.0
2016-Jul-14 04:30N 49°01' W 123°09'0 0.0
2016-Jul-14 03:33N 49°01' W 123°09'0 0.0
2016-Jul-14 02:33N 49°01' W 123°09'0 0.0
2016-Jul-14 01:33N 49°01' W 123°09'0 0.0
2016-Jul-14 00:21N 49°01' W 123°09'0 0.0
2016-Jul-13 23:33N 49°01' W 123°09'0 0.0
2016-Jul-13 22:32N 49°01' W 123°09'0 0.0
2016-Jul-13 21:30N 49°01' W 123°09'0 0.0
2016-Jul-13 20:33N 49°01' W 123°09'0 0.0
2016-Jul-13 19:30N 49°01' W 123°09'0 0.0
2016-Jul-13 18:33N 49°01' W 123°09'0 0.0
2016-Jul-13 17:33N 49°01' W 123°09'0 0.0
2016-Jul-13 16:33N 49°01' W 123°09'0 0.0
2016-Jul-13 15:33N 49°01' W 123°09'0 0.0
2016-Jul-13 14:33N 49°01' W 123°09'0 0.0
2016-Jul-13 13:33N 49°01' W 123°09'0 0.0
2016-Jul-13 12:33N 49°01' W 123°09'0 0.0
2016-Jul-13 11:12N 49°01' W 123°09'0 0.0
2016-Jul-13 10:30N 49°01' W 123°09'0 0.0
2016-Jul-13 09:33N 49°01' W 123°09'0 0.0
2016-Jul-13 08:33N 49°01' W 123°09'0 0.0
2016-Jul-13 07:30N 49°01' W 123°09'0 0.0
2016-Jul-13 06:33N 49°01' W 123°09'0 0.0
2016-Jul-13 05:33N 49°01' W 123°09'0 0.0
2016-Jul-13 04:33N 49°01' W 123°09'0 0.0
2016-Jul-13 03:33N 49°01' W 123°09'0 0.0
2016-Jul-13 02:33N 49°01' W 123°09'0 0.0
2016-Jul-13 01:33N 49°01' W 123°09'0 0.0
2016-Jul-13 00:33N 49°01' W 123°09'0 0.0
2016-Jul-12 23:33N 49°01' W 123°09'0 0.0
2016-Jul-12 22:33N 49°01' W 123°09'0 0.0
2016-Jul-12 21:33N 49°01' W 123°09'0 0.0
2016-Jul-12 20:33N 49°01' W 123°09'0 0.0
2016-Jul-12 19:33N 49°01' W 123°09'0 0.0
2016-Jul-12 18:33N 49°01' W 123°09'0 0.0
2016-Jul-12 17:32N 49°01' W 123°09'0 0.0
2016-Jul-12 16:33N 49°01' W 123°09'0 0.0
2016-Jul-12 15:33N 49°01' W 123°09'0 0.0
2016-Jul-12 14:33N 49°01' W 123°09'0 0.0
2016-Jul-12 13:33N 49°01' W 123°09'0 0.0
2016-Jul-12 12:30N 49°01' W 123°09'0 0.0
2016-Jul-12 11:33N 49°01' W 123°09'0 0.0
2016-Jul-12 10:30N 49°01' W 123°09'0 0.0
2016-Jul-12 09:28N 49°01' W 123°09'0 0.0
2016-Jul-12 08:31N 49°01' W 123°09'0 0.0
2016-Jul-12 07:31N 49°01' W 123°09'0 0.0
2016-Jul-12 06:31N 49°01' W 123°09'0 0.0
2016-Jul-12 05:31N 49°01' W 123°09'0 0.0
2016-Jul-12 04:28N 49°01' W 123°09'0 0.0
2016-Jul-12 03:31N 49°01' W 123°09'0 0.0
2016-Jul-12 02:31N 49°01' W 123°09'0 0.0
2016-Jul-12 01:31N 49°01' W 123°09'2 2.0
2016-Jul-12 00:33N 49°00' W 123°11'1 1.2
2016-Jul-11 23:33N 48°60' W 123°13'1 0.6
2016-Jul-11 22:33N 48°59' W 123°12'9 9.1
2016-Jul-11 21:33N 48°53' W 123°03'9 9.1
2016-Jul-11 20:33N 48°44' W 123°07'8 7.8
2016-Jul-11 19:33N 48°37' W 123°13'1110.5
2016-Jul-11 18:33N 48°27' W 123°10'1312.8
2016-Jul-11 17:33N 48°19' W 123°24'8 8.3
2016-Jul-11 16:33N 48°10' W 123°24'1413.9
2016-Jul-11 15:33N 48°12' W 123°03'1616.5
2016-Jul-11 14:33N 48°07' W 122°40'1716.9
2016-Jul-11 13:33N 47°53' W 122°28'1616.4
2016-Jul-11 12:33N 47°37' W 122°23'2 2.1
2016-Jul-11 11:33N 47°35' W 122°21'0 0.0
2016-Jul-11 10:30N 47°35' W 122°21'0 0.0
2016-Jul-11 09:33N 47°35' W 122°21'0 0.0
2016-Jul-11 08:33N 47°35' W 122°21'0 0.0
2016-Jul-11 07:31N 47°35' W 122°21'0 0.0
2016-Jul-11 06:32N 47°35' W 122°21'0 0.0
2016-Jul-11 04:32N 47°35' W 122°21'0 0.0
2016-Jul-11 03:33N 47°35' W 122°21'0 0.0
2016-Jul-11 01:15N 47°35' W 122°21'0 0.0
2016-Jul-11 00:33N 47°35' W 122°21'0 0.0
2016-Jul-10 23:33N 47°35' W 122°21'0 0.0
2016-Jul-10 22:33N 47°35' W 122°21'0 0.0
2016-Jul-10 21:33N 47°35' W 122°21'0 0.0
2016-Jul-10 20:32N 47°35' W 122°21'0 0.0
2016-Jul-10 19:32N 47°35' W 122°21'0 0.0
2016-Jul-10 18:32N 47°35' W 122°21'0 0.0
2016-Jul-10 17:32N 47°35' W 122°21'0 0.0
2016-Jul-10 16:31N 47°35' W 122°21'0 0.0
2016-Jul-10 15:31N 47°35' W 122°21'0 0.0
2016-Jul-10 14:31N 47°35' W 122°21'0 0.0
2016-Jul-10 13:33N 47°35' W 122°21'0 0.0
2016-Jul-10 12:33N 47°35' W 122°21'0 0.0
2016-Jul-10 11:33N 47°35' W 122°21'0 0.0
2016-Jul-10 10:33N 47°35' W 122°21'0 0.0
2016-Jul-10 09:33N 47°35' W 122°21'0 0.0
2016-Jul-10 08:33N 47°35' W 122°21'0 0.0
2016-Jul-10 07:31N 47°35' W 122°21'0 0.0
2016-Jul-10 06:31N 47°35' W 122°21'0 0.0
2016-Jul-10 05:31N 47°35' W 122°21'0 0.0
2016-Jul-10 04:33N 47°35' W 122°21'0 0.0
2016-Jul-10 03:33N 47°35' W 122°21'0 0.0
2016-Jul-10 02:31N 47°35' W 122°21'0 0.0
2016-Jul-10 01:31N 47°35' W 122°21'0 0.0
2016-Jul-10 00:31N 47°35' W 122°21'0 0.0
2016-Jul-09 23:31N 47°35' W 122°21'0 0.0
2016-Jul-09 22:31N 47°35' W 122°21'0 0.0
2016-Jul-09 21:31N 47°35' W 122°21'0 0.0
2016-Jul-09 20:31N 47°35' W 122°21'0 0.0
2016-Jul-09 19:33N 47°35' W 122°21'0 0.0
2016-Jul-09 18:33N 47°35' W 122°21'0 0.0
2016-Jul-09 17:33N 47°35' W 122°21'0 0.0
2016-Jul-09 16:33N 47°35' W 122°21'0 0.0
2016-Jul-09 15:31N 47°35' W 122°21'0 0.0
2016-Jul-09 14:32N 47°35' W 122°21'0 0.0
2016-Jul-09 13:33N 47°35' W 122°21'0 0.0
2016-Jul-09 12:33N 47°35' W 122°21'0 0.0
2016-Jul-09 11:33N 47°35' W 122°21'0 0.0
2016-Jul-09 10:33N 47°35' W 122°21'0 0.0
2016-Jul-09 09:33N 47°35' W 122°21'0 0.0
2016-Jul-09 08:33N 47°35' W 122°21'0 0.0
2016-Jul-09 07:33N 47°35' W 122°21'0 0.0
2016-Jul-09 06:33N 47°35' W 122°21'0 0.0
2016-Jul-09 04:33N 47°35' W 122°21'0 0.0
2016-Jul-09 03:34N 47°35' W 122°21'0 0.0
2016-Jul-09 02:33N 47°35' W 122°21'0 0.0
2016-Jul-09 01:33N 47°35' W 122°21'0 0.0
2016-Jul-09 00:33N 47°35' W 122°21'0 0.0
2016-Jul-08 23:33N 47°35' W 122°21'0 0.0
2016-Jul-08 22:34N 47°35' W 122°21'1 0.6
2016-Jul-08 21:33N 47°36' W 122°21'7 7.0
2016-Jul-08 20:34N 47°41' W 122°28'1616.4
2016-Jul-08 19:34N 47°57' W 122°33'2115.7
2016-Jul-08 18:12N 48°11' W 122°56'1219.0
2016-Jul-08 17:34N 48°12' W 123°14'1111.1
2016-Jul-08 16:33N 48°13' W 123°31'1818.2
2016-Jul-08 15:33N 48°14' W 123°58'1918.8
2016-Jul-08 14:33N 48°22' W 124°24'1918.4
2016-Jul-08 13:33N 48°28' W 124°50'1919.5
2016-Jul-08 12:34N 48°29' W 125°19'2019.7
2016-Jul-08 11:34N 48°29' W 125°49'2019.9
2016-Jul-08 10:33N 48°30' W 126°19'2219.5
2016-Jul-08 09:25N 48°31' W 126°52'  

Dump ship's entire track history